Main page
METAR-TAF:

METAR-TAF

Airports :

Chengdu, China

Chengdu Shuangliu International Airport

latitude: 30-40N, longitude: 104-01E, elevation: 508 m

Current weather observation

The report was made 59 minutes ago, at 04:00 UTC
Wind 6 kt from the East/Southeast, varying between Northeast and South/Southeast
Temperature 33°C
Humidity 67%
Pressure 1009 hPa
Visibility 10 km or more
Few clouds at a height of 3000 ft, Towering cumulus.
Scattered clouds at a height of 3000 ft

METAR: ZUUU 220400Z 12003MPS 050V160 9999 FEW030TCU SCT030 33/26 Q1009 NOSIG

Time: 12:59 (04:59 UTC)

Forecast

The report was made 8 hours and 19 minutes ago, at 20:40 UTC
Forecast valid from 22 at 00 UTC to 22 at 24 UTC
Wind 6 kt from the Southwest
Visibility: 7000 m
Scattered clouds at a height of 5000 ft
Temporary
from 22 at 08 UTC to 22 at 10 UTC
Few clouds at a height of 3000 ft, Cumulonimbus.
thunderstorm, light rain

TAF: ZUUU 212040Z 2200/2224 22003MPS 7000 SCT050 TX34/2207Z TN25/2222Z TEMPO 2208/2210 -TSRA FEW030CB

Weather observations and forecasts of more than 4000 airports (METAR and TAF reports).

The available stations are represented by yellow and red dots on the map.

Hover mouse over dot to see the name of the station.

Then click to see weather observations and forecasts.

To change the map : click on the green buttons with a black cross to zoom in, on the green button with a dash to zoom out, or on the green arrows for adjacent maps.


METAR-TAF: